createdAt,value
2018-02-05T00:01:40.133Z,26.80
2018-02-05T00:04:07.693Z,26.47
2018-02-05T00:06:35.255Z,26.40
2018-02-05T00:09:02.812Z,25.93
2018-02-05T00:11:30.371Z,27.70
2018-02-05T00:13:57.777Z,28.63
2018-02-05T00:16:25.389Z,30.90
2018-02-05T00:18:52.881Z,27.63
2018-02-05T00:21:22.184Z,28.80
2018-02-05T00:23:49.843Z,28.80
2018-02-05T00:26:17.404Z,29.60
2018-02-05T00:28:44.861Z,27.80
2018-02-05T00:31:12.331Z,29.30
2018-02-05T00:33:39.764Z,28.90
2018-02-05T00:36:07.298Z,27.87
2018-02-05T00:38:34.857Z,28.47
2018-02-05T00:41:02.416Z,27.70
2018-02-05T00:43:29.976Z,28.83
2018-02-05T00:45:57.481Z,27.60
2018-02-05T00:48:24.992Z,27.83
2018-02-05T00:50:52.553Z,30.73
2018-02-05T00:53:20.111Z,30.40
2018-02-05T00:55:47.670Z,28.30
2018-02-05T00:58:15.230Z,28.20
2018-02-05T01:00:42.789Z,28.97
2018-02-05T01:03:10.350Z,28.37
2018-02-05T01:05:38.011Z,28.27
2018-02-05T01:08:05.503Z,27.43
2018-02-05T01:10:33.027Z,29.60
2018-02-05T01:13:00.586Z,26.80
2018-02-05T01:15:28.044Z,28.20
2018-02-05T01:17:55.500Z,27.63
2018-02-05T01:20:23.060Z,28.80
2018-02-05T01:22:50.622Z,26.93
2018-02-05T01:25:18.112Z,28.00
2018-02-05T01:27:45.634Z,26.97
2018-02-05T01:30:13.128Z,28.70
2018-02-05T01:32:40.754Z,26.63
2018-02-05T01:35:08.315Z,26.67
2018-02-05T01:37:35.808Z,28.17
2018-02-05T01:40:03.376Z,26.97
2018-02-05T01:42:30.825Z,28.00
2018-02-05T01:44:58.281Z,27.90
2018-02-05T01:47:25.739Z,27.33
2018-02-05T01:49:53.260Z,26.73
2018-02-05T01:52:20.923Z,28.00
2018-02-05T01:54:48.385Z,27.33
2018-02-05T01:57:15.837Z,28.07
2018-02-05T01:59:43.396Z,26.93
2018-02-05T02:02:10.991Z,26.70
2018-02-05T02:04:38.621Z,27.70
2018-02-05T02:07:06.075Z,28.17
2018-02-05T02:09:33.633Z,27.93
2018-02-05T02:12:01.128Z,24.87
2018-02-05T02:14:28.649Z,26.63
2018-02-05T02:16:56.144Z,26.70
2018-02-05T02:19:23.620Z,26.20
2018-02-05T02:21:51.124Z,27.40
2018-02-05T02:24:18.684Z,28.60
2018-02-05T02:26:49.865Z,25.83
2018-02-05T02:29:17.320Z,24.70
2018-02-05T02:31:44.842Z,24.57
2018-02-05T02:34:12.300Z,26.23
2018-02-05T02:36:39.728Z,26.50
2018-02-05T02:39:07.252Z,26.20
2018-02-05T02:41:34.707Z,26.47
2018-02-05T02:44:02.182Z,27.40
2018-02-05T02:46:29.725Z,27.03
2018-02-05T02:48:57.248Z,25.10
2018-02-05T02:51:24.747Z,25.90
2018-02-05T02:53:52.468Z,26.70
2018-02-05T02:56:20.028Z,25.73
2018-02-05T02:58:47.425Z,26.03
2018-02-05T03:01:14.942Z,24.97
2018-02-05T03:03:42.399Z,25.27
2018-02-05T03:06:09.958Z,25.30
2018-02-05T03:08:37.518Z,24.30
2018-02-05T03:11:05.077Z,23.80
2018-02-05T03:13:32.637Z,22.27
2018-02-05T03:16:00.196Z,21.97
2018-02-05T03:18:27.688Z,21.77
2018-02-05T03:20:55.091Z,21.00
2018-02-05T03:23:22.604Z,21.60
2018-02-05T03:25:50.127Z,21.27
2018-02-05T03:28:17.686Z,21.57
2018-02-05T03:30:45.245Z,22.03
2018-02-05T03:33:12.806Z,21.87
2018-02-05T03:35:40.364Z,21.53
2018-02-05T03:38:07.923Z,23.43
2018-02-05T03:40:35.482Z,22.50
2018-02-05T03:43:03.043Z,21.97
2018-02-05T03:45:30.500Z,20.80
2018-02-05T03:47:58.059Z,21.63
2018-02-05T03:50:28.729Z,21.90
2018-02-05T03:52:56.250Z,21.90
2018-02-05T03:55:23.707Z,22.60
2018-02-05T03:57:51.268Z,22.70
2018-02-05T04:00:18.763Z,20.83
2018-02-05T04:02:46.386Z,21.47
2018-02-05T04:05:14.252Z,20.33
2018-02-05T04:07:41.747Z,20.20
2018-02-05T04:10:09.268Z,21.00
2018-02-05T04:12:36.827Z,20.03
2018-02-05T04:15:04.387Z,18.43
2018-02-05T04:17:31.792Z,19.10
2018-02-05T04:19:59.236Z,19.60
2018-02-05T04:22:26.758Z,18.50
2018-02-05T04:24:54.347Z,18.93
2018-02-05T04:27:21.881Z,18.10
2018-02-05T04:29:49.436Z,19.80
2018-02-05T04:32:16.996Z,18.53
2018-02-05T04:34:44.555Z,18.60
2018-02-05T04:37:11.991Z,19.20
2018-02-05T04:39:39.409Z,19.67
2018-02-05T04:42:06.860Z,17.90
2018-02-05T04:44:34.383Z,19.67
2018-02-05T04:47:01.943Z,18.30
2018-02-05T04:49:29.435Z,18.80
2018-02-05T04:51:56.894Z,18.20
2018-02-05T04:54:24.416Z,18.07
2018-02-05T04:56:51.977Z,18.43
2018-02-05T04:59:19.472Z,18.73
2018-02-05T05:01:46.994Z,18.80
2018-02-05T05:04:14.552Z,18.90
2018-02-05T05:06:42.315Z,17.93
2018-02-05T05:09:09.875Z,18.00
2018-02-05T05:11:37.439Z,17.30
2018-02-05T05:14:05.097Z,18.03
2018-02-05T05:16:32.591Z,16.60
2018-02-05T05:19:00.113Z,17.30
2018-02-05T05:21:27.775Z,17.33
2018-02-05T05:23:55.334Z,15.97
2018-02-05T05:26:22.792Z,18.13
2018-02-05T05:28:50.296Z,16.53
2018-02-05T05:31:17.808Z,17.80
2018-02-05T05:33:45.301Z,16.53
2018-02-05T05:36:12.825Z,16.00
2018-02-05T05:38:40.323Z,17.27
2018-02-05T05:41:07.943Z,18.60
2018-02-05T05:43:35.402Z,16.37
2018-02-05T05:46:02.860Z,15.83
2018-02-05T05:48:30.416Z,16.97
2018-02-05T05:50:57.975Z,16.37
2018-02-05T05:53:25.740Z,16.43
2018-02-05T05:55:53.197Z,15.67
2018-02-05T05:58:20.604Z,17.30
2018-02-05T06:00:48.052Z,15.40
2018-02-05T06:03:15.463Z,15.70
2018-02-05T06:05:43.025Z,15.47
2018-02-05T06:08:10.520Z,16.03
2018-02-05T06:10:38.042Z,16.53
2018-02-05T06:13:05.631Z,16.50
2018-02-05T06:15:33.097Z,16.33
2018-02-05T06:18:00.552Z,17.23
2018-02-05T06:20:28.075Z,17.17
2018-02-05T06:22:55.841Z,15.33
2018-02-05T06:25:23.398Z,16.00
2018-02-05T06:27:50.957Z,16.00
2018-02-05T06:30:18.415Z,16.20
2018-02-05T06:32:46.079Z,15.20
2018-02-05T06:35:13.534Z,15.03
2018-02-05T06:37:40.975Z,14.40
2018-02-05T06:40:08.484Z,15.43
2018-02-05T06:42:36.007Z,15.17
2018-02-05T06:45:03.500Z,15.27
2018-02-05T06:47:31.164Z,15.80
2018-02-05T06:49:58.685Z,14.23
2018-02-05T06:52:31.979Z,15.00
2018-02-05T06:55:05.208Z,13.67
2018-02-05T06:57:32.731Z,13.50
2018-02-05T07:00:00.225Z,14.70
2018-02-05T07:02:27.681Z,14.40
2018-02-05T07:04:55.204Z,14.43
2018-02-05T07:07:22.762Z,14.97
2018-02-05T07:09:50.327Z,14.80
2018-02-05T07:12:17.882Z,15.47
2018-02-05T07:14:45.587Z,16.10
2018-02-05T07:17:13.103Z,16.37
2018-02-05T07:19:40.597Z,15.57
2018-02-05T07:22:08.222Z,14.97
2018-02-05T07:24:35.715Z,15.70
2018-02-05T07:27:03.121Z,14.37
2018-02-05T07:29:30.627Z,15.00
2018-02-05T07:31:58.152Z,13.33
2018-02-05T07:34:25.713Z,14.30
2018-02-05T07:36:53.271Z,13.87
2018-02-05T07:39:20.833Z,12.97
2018-02-05T07:41:48.326Z,12.60
2018-02-05T07:44:15.755Z,13.50
2018-02-05T07:46:43.305Z,13.00
2018-02-05T07:49:10.863Z,12.60
2018-02-05T07:51:38.423Z,13.30
2018-02-05T07:54:05.832Z,12.00
2018-02-05T07:56:33.440Z,11.17
2018-02-05T07:59:00.933Z,11.60
2018-02-05T08:01:28.456Z,10.90
2018-02-05T08:03:56.015Z,10.73
2018-02-05T08:06:23.574Z,11.57
2018-02-05T08:08:51.135Z,10.20
2018-02-05T08:11:18.698Z,9.93
2018-02-05T08:13:46.151Z,9.60
2018-02-05T08:16:13.916Z,10.87
2018-02-05T08:18:41.407Z,10.90
2018-02-05T08:21:08.813Z,10.10
2018-02-05T08:23:36.388Z,8.97
2018-02-05T08:26:03.893Z,9.10
2018-02-05T08:28:31.507Z,9.73
2018-02-05T08:30:59.890Z,8.90
2018-02-05T08:33:27.457Z,8.50
2018-02-05T08:35:55.005Z,8.40
2018-02-05T08:38:22.666Z,9.03
2018-02-05T08:40:50.225Z,8.50
2018-02-05T08:43:17.785Z,8.10
2018-02-05T08:45:45.346Z,8.30
2018-02-05T08:48:12.842Z,8.20
2018-02-05T08:50:40.363Z,8.30
2018-02-05T08:53:07.920Z,7.57
2018-02-05T08:55:35.481Z,7.57
2018-02-05T08:58:03.040Z,7.80
2018-02-05T09:00:30.701Z,8.30
2018-02-05T09:02:58.261Z,8.23
2018-02-05T09:05:25.873Z,7.00
2018-02-05T09:07:53.585Z,6.43
2018-02-05T09:10:21.144Z,5.80
2018-02-05T09:12:48.705Z,6.10
2018-02-05T09:15:16.412Z,6.70
2018-02-05T09:17:43.974Z,6.33
2018-02-05T09:20:11.484Z,6.37
2018-02-05T09:22:38.920Z,6.00
2018-02-05T09:25:06.537Z,7.50
2018-02-05T09:27:33.992Z,6.90
2018-02-05T09:30:01.518Z,6.13
2018-02-05T09:32:32.456Z,6.60
2018-02-05T09:34:59.962Z,6.13
2018-02-05T09:37:27.473Z,5.80
2018-02-05T09:39:55.748Z,6.03
2018-02-05T09:42:23.311Z,6.40
2018-02-05T09:44:50.869Z,5.90
2018-02-05T09:47:18.429Z,5.10
2018-02-05T09:49:45.988Z,5.07
2018-02-05T09:52:13.547Z,5.30
2018-02-05T09:54:41.058Z,4.70
2018-02-05T09:57:08.568Z,4.77
2018-02-05T09:59:36.124Z,4.33
2018-02-05T10:02:03.634Z,4.00
2018-02-05T10:04:31.140Z,4.20
2018-02-05T10:06:58.699Z,4.10
2018-02-05T10:09:26.361Z,4.20
2018-02-05T10:11:54.228Z,4.20
2018-02-05T10:14:21.890Z,4.00
2018-02-05T10:16:49.449Z,3.67
2018-02-05T10:19:17.009Z,4.07
2018-02-05T10:21:44.539Z,3.60
2018-02-05T10:24:12.127Z,3.30
2018-02-05T10:26:39.686Z,3.50
2018-02-05T10:29:07.247Z,3.50
2018-02-05T10:31:34.806Z,3.80
2018-02-05T10:34:02.365Z,3.37
2018-02-05T10:36:29.924Z,4.23
2018-02-05T10:38:57.485Z,4.00
2018-02-05T10:41:25.043Z,3.60
2018-02-05T10:43:52.606Z,3.30
2018-02-05T10:46:20.163Z,2.90
2018-02-05T10:48:47.740Z,2.70
2018-02-05T10:51:15.390Z,3.00
2018-02-05T10:53:42.949Z,2.90
2018-02-05T10:56:10.503Z,3.20
2018-02-05T10:58:38.062Z,2.33
2018-02-05T11:01:05.621Z,2.80
2018-02-05T11:03:33.181Z,3.40
2018-02-05T11:06:00.742Z,3.10
2018-02-05T11:08:28.300Z,2.80
2018-02-05T11:10:55.858Z,2.73
2018-02-05T11:13:23.422Z,3.10
2018-02-05T11:15:51.183Z,2.70
2018-02-05T11:18:18.845Z,2.50
2018-02-05T11:20:46.405Z,3.10
2018-02-05T11:23:13.964Z,3.33
2018-02-05T11:25:41.524Z,3.53
2018-02-05T11:28:09.083Z,3.23
2018-02-05T11:30:36.641Z,3.10
2018-02-05T11:33:04.201Z,3.13
2018-02-05T11:35:31.760Z,3.30
2018-02-05T11:37:59.321Z,3.40
2018-02-05T11:40:26.879Z,3.57
2018-02-05T11:42:54.542Z,3.07
2018-02-05T11:45:22.100Z,3.13
2018-02-05T11:47:49.660Z,2.87
2018-02-05T11:50:17.528Z,3.47
2018-02-05T11:52:45.086Z,2.77
2018-02-05T11:55:12.748Z,2.80
2018-02-05T11:57:40.308Z,3.10
2018-02-05T12:00:07.878Z,3.20
2018-02-05T12:02:35.630Z,3.10
2018-02-05T12:05:03.191Z,2.70
2018-02-05T12:07:30.750Z,2.80
2018-02-05T12:09:58.310Z,2.90
2018-02-05T12:12:25.869Z,2.60
2018-02-05T12:14:53.429Z,2.60
2018-02-05T12:17:21.193Z,3.00
2018-02-05T12:19:48.703Z,3.40
2018-02-05T12:22:16.312Z,2.93
2018-02-05T12:24:43.871Z,3.23
2018-02-05T12:27:11.635Z,3.83
2018-02-05T12:29:39.192Z,3.00
2018-02-05T12:32:06.584Z,2.87
2018-02-05T12:34:34.106Z,3.55
2018-02-05T12:37:01.666Z,3.17
2018-02-05T12:39:29.225Z,3.00
2018-02-05T12:41:56.786Z,2.73
2018-02-05T12:44:24.345Z,2.80
2018-02-05T12:46:51.903Z,2.60
2018-02-05T12:49:19.397Z,2.93
2018-02-05T12:51:46.920Z,3.40
2018-02-05T12:54:14.479Z,3.13
2018-02-05T12:56:41.873Z,2.83
2018-02-05T12:59:09.292Z,2.90
2018-02-05T13:01:51.697Z,2.97
2018-02-05T13:04:24.821Z,3.30
2018-02-05T13:06:52.347Z,3.10
2018-02-05T13:09:19.906Z,2.93
2018-02-05T13:11:47.304Z,3.20
2018-02-05T13:14:14.754Z,3.03
2018-02-05T13:16:42.277Z,3.33
2018-02-05T13:19:09.837Z,3.33
2018-02-05T13:21:37.340Z,3.20
2018-02-05T13:24:04.878Z,3.33
2018-02-05T13:26:32.412Z,3.50
2018-02-05T13:28:59.972Z,3.67
2018-02-05T13:31:27.363Z,3.30
2018-02-05T13:33:54.819Z,2.97
2018-02-05T13:36:22.344Z,3.37
2018-02-05T13:38:49.902Z,3.73
2018-02-05T13:41:17.352Z,2.80
2018-02-05T13:43:44.817Z,2.90
2018-02-05T13:46:12.378Z,2.80
2018-02-05T13:48:39.818Z,3.00
2018-02-05T13:51:07.393Z,2.80
2018-02-05T13:53:34.885Z,3.07
2018-02-05T13:56:02.311Z,2.90
2018-02-05T13:58:29.796Z,3.37
2018-02-05T14:00:57.256Z,3.37
2018-02-05T14:03:24.780Z,3.30
2018-02-05T14:05:52.272Z,3.30
2018-02-05T14:08:19.796Z,3.23
2018-02-05T14:10:47.356Z,3.50
2018-02-05T14:13:14.755Z,3.50
2018-02-05T14:15:42.166Z,3.20
2018-02-05T14:18:09.864Z,3.60
2018-02-05T14:20:37.390Z,3.40
2018-02-05T14:23:04.880Z,3.43
2018-02-05T14:25:32.341Z,3.57
2018-02-05T14:27:59.863Z,3.53
2018-02-05T14:30:27.421Z,3.30
2018-02-05T14:32:54.816Z,3.73
2018-02-05T14:35:22.380Z,3.93
2018-02-05T14:37:49.895Z,3.07
2018-02-05T14:40:17.456Z,3.13
2018-02-05T14:42:44.944Z,3.10
2018-02-05T14:45:12.407Z,3.13
2018-02-05T14:47:39.874Z,3.07
2018-02-05T14:50:07.493Z,3.83
2018-02-05T14:52:34.884Z,3.60
2018-02-05T14:55:02.300Z,3.97
2018-02-05T14:57:29.797Z,3.40
2018-02-05T14:59:57.189Z,3.47
2018-02-05T15:02:24.772Z,3.93
2018-02-05T15:04:52.332Z,4.03
2018-02-05T15:07:19.891Z,3.60
2018-02-05T15:09:47.455Z,3.60
2018-02-05T15:12:14.948Z,3.87
2018-02-05T15:14:42.468Z,5.90
2018-02-05T15:17:09.965Z,4.07
2018-02-05T15:19:37.486Z,3.80
2018-02-05T15:22:04.899Z,3.40
2018-02-05T15:24:32.509Z,4.30
2018-02-05T15:27:00.060Z,4.20
2018-02-05T15:29:27.552Z,3.83
2018-02-05T15:31:55.282Z,4.17
2018-02-05T15:34:22.840Z,4.70
2018-02-05T15:36:50.404Z,4.43
2018-02-05T15:39:17.972Z,4.03
2018-02-05T15:41:45.375Z,4.50
2018-02-05T15:44:12.874Z,3.83
2018-02-05T15:46:40.434Z,4.33
2018-02-05T15:49:07.993Z,4.17
2018-02-05T15:51:35.551Z,3.97
2018-02-05T15:54:03.008Z,4.07
2018-02-05T15:56:30.501Z,4.07
2018-02-05T15:58:57.960Z,4.27
2018-02-05T16:01:25.482Z,3.90
2018-02-05T16:03:53.011Z,4.20
2018-02-05T16:06:20.602Z,4.10
2018-02-05T16:08:48.164Z,4.20
2018-02-05T16:11:15.619Z,4.40
2018-02-05T16:13:43.488Z,4.60
2018-02-05T16:16:10.941Z,4.10
2018-02-05T16:18:38.499Z,4.50
2018-02-05T16:21:06.101Z,4.83
2018-02-05T16:23:33.619Z,5.07
2018-02-05T16:26:01.114Z,5.10
2018-02-05T16:28:28.636Z,4.70
2018-02-05T16:30:56.127Z,4.80
2018-02-05T16:33:23.585Z,5.00
2018-02-05T16:35:51.314Z,4.80
2018-02-05T16:38:18.874Z,5.53
2018-02-05T16:40:46.365Z,5.10
2018-02-05T16:43:13.890Z,5.13
2018-02-05T16:45:41.450Z,5.63
2018-02-05T16:48:09.008Z,5.50
2018-02-05T16:50:36.567Z,4.47
2018-02-05T16:53:04.059Z,5.30
2018-02-05T16:55:31.586Z,5.00
2018-02-05T16:57:58.987Z,5.50
2018-02-05T17:00:26.533Z,5.60
2018-02-05T17:02:54.262Z,5.20
2018-02-05T17:05:21.825Z,6.00
2018-02-05T17:07:49.381Z,5.50
2018-02-05T17:10:17.043Z,6.40
2018-02-05T17:12:44.536Z,6.70
2018-02-05T17:15:12.060Z,8.87
2018-02-05T17:17:39.558Z,7.33
2018-02-05T17:20:07.077Z,6.63
2018-02-05T17:22:34.635Z,6.70
2018-02-05T17:25:02.129Z,6.63
2018-02-05T17:27:29.653Z,6.93
2018-02-05T17:29:57.052Z,6.07
2018-02-05T17:32:24.668Z,5.50
2018-02-05T17:34:52.228Z,6.40
2018-02-05T17:37:19.788Z,5.83
2018-02-05T17:39:47.287Z,5.70
2018-02-05T17:42:14.805Z,6.03
2018-02-05T17:44:42.807Z,5.70
2018-02-05T17:47:10.332Z,6.20
2018-02-05T17:49:37.848Z,5.90
2018-02-05T17:52:05.348Z,5.93
2018-02-05T17:54:32.914Z,5.40
2018-02-05T17:57:00.468Z,6.17
2018-02-05T17:59:28.026Z,6.00
2018-02-05T18:01:55.521Z,6.07
2018-02-05T18:04:23.044Z,5.83
2018-02-05T18:06:50.807Z,5.90
2018-02-05T18:09:18.367Z,6.40
2018-02-05T18:11:45.926Z,5.90
2018-02-05T18:14:13.486Z,7.07
2018-02-05T18:16:41.149Z,6.40
2018-02-05T18:19:08.746Z,7.43
2018-02-05T18:21:36.200Z,7.23
2018-02-05T18:24:03.621Z,6.70
2018-02-05T18:26:31.181Z,7.20
2018-02-05T18:28:58.672Z,6.60
2018-02-05T18:31:26.301Z,6.40
2018-02-05T18:33:53.859Z,6.53
2018-02-05T18:36:21.428Z,7.40
2018-02-05T18:38:48.977Z,7.33
2018-02-05T18:41:16.538Z,7.80
2018-02-05T18:43:44.141Z,7.93
2018-02-05T18:46:11.582Z,7.60
2018-02-05T18:48:39.113Z,7.50
2018-02-05T18:51:06.674Z,7.57
2018-02-05T18:53:34.231Z,8.10
2018-02-05T18:56:02.251Z,7.60
2018-02-05T18:58:29.760Z,8.27
2018-02-05T19:00:57.320Z,8.67
2018-02-05T19:03:24.983Z,8.40
2018-02-05T19:05:52.476Z,8.10
2018-02-05T19:08:19.998Z,8.07
2018-02-05T19:10:47.558Z,7.90
2018-02-05T19:13:15.117Z,8.03
2018-02-05T19:15:42.676Z,8.57
2018-02-05T19:18:10.272Z,8.33
2018-02-05T19:20:37.794Z,8.43
2018-02-05T19:23:05.355Z,8.80
2018-02-05T19:25:32.812Z,7.90
2018-02-05T19:28:00.373Z,8.90
2018-02-05T19:30:27.930Z,7.30
2018-02-05T19:32:58.985Z,7.70
2018-02-05T19:35:26.633Z,8.10
2018-02-05T19:37:54.194Z,8.10
2018-02-05T19:40:21.757Z,8.33
2018-02-05T19:42:49.317Z,7.90
2018-02-05T19:45:16.977Z,8.77
2018-02-05T19:47:44.533Z,8.87
2018-02-05T19:50:12.167Z,8.93
2018-02-05T19:52:39.596Z,10.00
2018-02-05T19:55:07.527Z,9.73
2018-02-05T19:57:35.181Z,9.20
2018-02-05T20:00:02.671Z,9.27
2018-02-05T20:02:30.200Z,9.47
2018-02-05T20:04:57.763Z,8.90
2018-02-05T20:07:25.315Z,9.70
2018-02-05T20:09:52.808Z,9.10
2018-02-05T20:12:20.333Z,11.30
2018-02-05T20:14:47.892Z,10.60
2018-02-05T20:17:15.451Z,10.20
2018-02-05T20:19:43.010Z,11.13
2018-02-05T20:22:10.467Z,10.60
2018-02-05T20:24:38.027Z,10.13
2018-02-05T20:27:05.690Z,11.43
2018-02-05T20:29:33.148Z,10.23
2018-02-05T20:32:00.648Z,10.30
2018-02-05T20:34:28.209Z,11.37
2018-02-05T20:36:55.721Z,11.87
2018-02-05T20:39:23.225Z,14.50
2018-02-05T20:41:50.942Z,13.30
2018-02-05T20:44:18.444Z,13.50
2018-02-05T20:46:45.961Z,14.00
2018-02-05T20:49:13.519Z,12.83
2018-02-05T20:51:40.979Z,12.63
2018-02-05T20:54:08.689Z,11.10
2018-02-05T20:56:36.198Z,12.17
2018-02-05T20:59:03.757Z,11.20
2018-02-05T21:01:31.316Z,10.50
2018-02-05T21:03:58.875Z,11.33
2018-02-05T21:06:26.333Z,10.63
2018-02-05T21:08:53.891Z,10.97
2018-02-05T21:11:21.451Z,11.10
2018-02-05T21:13:49.011Z,11.23
2018-02-05T21:16:16.445Z,12.57
2018-02-05T21:18:43.961Z,11.33
2018-02-05T21:21:11.487Z,10.90
2018-02-05T21:23:38.988Z,11.00
2018-02-05T21:26:06.508Z,11.47
2018-02-05T21:28:34.162Z,13.30
2018-02-05T21:31:01.723Z,12.67
2018-02-05T21:33:29.281Z,12.80
2018-02-05T21:35:56.725Z,15.20
2018-02-05T21:38:24.297Z,13.40
2018-02-05T21:40:51.857Z,12.60
2018-02-05T21:43:19.417Z,12.47
2018-02-05T21:45:47.015Z,12.47
2018-02-05T21:48:14.440Z,14.53
2018-02-05T21:50:41.992Z,14.90
2018-02-05T21:53:09.485Z,14.63
2018-02-05T21:55:37.008Z,13.30
2018-02-05T21:58:04.572Z,12.70
2018-02-05T22:00:32.127Z,12.23
2018-02-05T22:02:59.686Z,11.67
2018-02-05T22:05:27.144Z,12.97
2018-02-05T22:07:54.704Z,15.53
2018-02-05T22:10:22.113Z,14.03
2018-02-05T22:12:49.617Z,12.87
2018-02-05T22:15:17.177Z,13.87
2018-02-05T22:17:44.737Z,13.20
2018-02-05T22:20:12.278Z,12.10
2018-02-05T22:22:39.791Z,12.33
2018-02-05T22:25:07.312Z,12.83
2018-02-05T22:27:34.769Z,12.90
2018-02-05T22:30:02.467Z,14.50
2018-02-05T22:32:29.991Z,12.40
2018-02-05T22:34:57.550Z,13.10
2018-02-05T22:37:25.050Z,12.77
2018-02-05T22:39:52.499Z,13.00
2018-02-05T22:42:20.024Z,14.93
2018-02-05T22:44:47.582Z,13.17
2018-02-05T22:47:15.076Z,14.13
2018-02-05T22:49:42.600Z,12.83
2018-02-05T22:52:10.097Z,12.60
2018-02-05T22:54:37.719Z,11.93
2018-02-05T22:57:05.305Z,13.50
2018-02-05T22:59:32.837Z,12.13
2018-02-05T23:02:00.295Z,12.40
2018-02-05T23:04:27.787Z,12.50
2018-02-05T23:06:55.310Z,12.53
2018-02-05T23:09:22.770Z,12.73
2018-02-05T23:11:50.328Z,13.03
2018-02-05T23:14:17.886Z,13.20
2018-02-05T23:16:45.381Z,12.70
2018-02-05T23:19:12.903Z,11.57
2018-02-05T23:21:40.463Z,11.90
2018-02-05T23:24:08.022Z,11.93
2018-02-05T23:26:35.582Z,11.70
2018-02-05T23:29:03.141Z,12.23
2018-02-05T23:31:30.700Z,12.63
2018-02-05T23:33:58.260Z,12.90
2018-02-05T23:36:25.819Z,12.73
2018-02-05T23:38:53.330Z,12.37
2018-02-05T23:41:20.836Z,12.93
2018-02-05T23:43:48.395Z,13.40
2018-02-05T23:46:15.954Z,12.20
2018-02-05T23:48:44.280Z,14.90
2018-02-05T23:51:11.838Z,16.77
2018-02-05T23:53:39.350Z,15.27
2018-02-05T23:56:06.807Z,14.80
2018-02-05T23:58:35.016Z,15.00
